Time;durP1;ratioP1;P1;durP2;ratioP2;P2;SDS_P1;SDS_P2;PMS_P1;PMS_P2;Temp;Humidity;BMP_temperature;BMP_pressure;BME280_temperature;BME280_humidity;BME280_pressure;Samples;Min_cycle;Max_cycle;Signal;HPM_P1;HPM_P2
2023/04/14 00:01:20;;;;;;;4.55;4.15;;;6.60;99.90;;;;;;5069818;28;20320;-81
2023/04/14 00:03:50;;;;;;;5.40;4.70;;;6.60;99.90;;;;;;5070114;28;20284;-82
2023/04/14 00:06:19;;;;;;;4.32;3.92;;;6.60;99.90;;;;;;5070214;28;20217;-80
2023/04/14 00:08:47;;;;;;;4.40;4.10;;;6.60;99.90;;;;;;5069193;28;20236;-81
2023/04/14 00:11:16;;;;;;;4.68;4.38;;;6.60;99.90;;;;;;5070135;28;20221;-81
2023/04/14 00:13:45;;;;;;;4.75;4.28;;;6.60;99.90;;;;;;5070179;28;20201;-81
2023/04/14 00:16:14;;;;;;;4.57;4.28;;;6.60;99.90;;;;;;5073209;28;20220;-81
2023/04/14 00:18:42;;;;;;;4.07;3.78;;;6.60;99.90;;;;;;5073470;28;20223;-80
2023/04/14 00:21:12;;;;;;;3.90;3.60;;;6.50;99.90;;;;;;5073513;28;20235;-80
2023/04/14 00:23:40;;;;;;;2.65;2.55;;;6.60;99.90;;;;;;5073889;28;20212;-80
2023/04/14 00:26:09;;;;;;;3.03;2.83;;;6.50;99.90;;;;;;5073412;28;20209;-82
2023/04/14 00:28:38;;;;;;;3.53;3.28;;;6.50;99.90;;;;;;5074690;28;20213;-81
2023/04/14 00:31:07;;;;;;;2.42;2.33;;;6.50;99.90;;;;;;5076069;28;20201;-81
2023/04/14 00:33:35;;;;;;;3.22;2.92;;;6.50;99.90;;;;;;5075291;28;20295;-81
2023/04/14 00:36:04;;;;;;;2.90;2.70;;;6.50;99.90;;;;;;5075981;28;20211;-81
2023/04/14 00:38:34;;;;;;;3.50;3.20;;;6.50;99.90;;;;;;5075562;28;20212;-81
2023/04/14 00:41:02;;;;;;;3.53;3.22;;;6.50;99.90;;;;;;5075327;28;20232;-81
2023/04/14 00:43:30;;;;;;;3.20;2.88;;;6.50;99.90;;;;;;5075257;28;20201;-81
2023/04/14 00:46:02;;;;;;;2.92;2.70;;;6.40;99.90;;;;;;5075349;28;20213;-81
2023/04/14 00:48:31;;;;;;;3.33;3.10;;;6.40;99.90;;;;;;5074949;28;20219;-81
2023/04/14 00:51:00;;;;;;;3.70;3.40;;;6.50;99.90;;;;;;5075818;28;20208;-81
2023/04/14 00:53:29;;;;;;;3.50;3.30;;;6.40;99.90;;;;;;5075567;28;20260;-81
2023/04/14 00:55:59;;;;;;;3.67;3.28;;;6.40;99.90;;;;;;5075521;28;20247;-81
2023/04/14 00:58:28;;;;;;;3.22;3.03;;;6.40;99.90;;;;;;5074809;28;20240;-81
2023/04/14 01:00:58;;;;;;;3.47;2.53;;;6.40;99.90;;;;;;5075106;28;20225;-81
2023/04/14 01:03:26;;;;;;;3.03;2.80;;;6.40;99.90;;;;;;5075237;28;20205;-81
2023/04/14 01:05:55;;;;;;;3.03;2.83;;;6.40;99.90;;;;;;5075224;28;20205;-81
2023/04/14 01:08:23;;;;;;;3.38;3.17;;;6.40;99.90;;;;;;5074846;28;20207;-81
2023/04/14 01:11:11;;;;;;;2.40;2.20;;;6.30;99.90;;;;;;5075345;28;20211;-81
2023/04/14 01:13:48;;;;;;;1.85;1.75;;;6.20;99.90;;;;;;5075339;28;20213;-81
2023/04/14 01:16:20;;;;;;;1.70;1.60;;;6.20;99.90;;;;;;5074964;28;20215;-82
2023/04/14 01:18:55;;;;;;;1.92;1.73;;;6.10;99.90;;;;;;5074723;28;20205;-82
2023/04/14 01:21:31;;;;;;;1.63;1.52;;;6.00;99.90;;;;;;5074742;28;20232;-82
2023/04/14 01:24:17;;;;;;;2.10;2.00;;;5.90;99.90;;;;;;5075099;28;20208;-81
2023/04/14 01:26:47;;;;;;;1.90;1.80;;;5.90;99.90;;;;;;5073950;28;20275;-81
2023/04/14 01:29:43;;;;;;;1.50;1.40;;;5.80;99.90;;;;;;5075133;28;20240;-82
2023/04/14 01:32:19;;;;;;;1.35;1.25;;;5.80;99.90;;;;;;5074701;28;20240;-81
2023/04/14 01:34:53;;;;;;;0.88;0.88;;;5.80;99.90;;;;;;5073787;28;20243;-82
2023/04/14 01:37:29;;;;;;;1.00;1.00;;;5.60;99.90;;;;;;5074488;28;20295;-81
2023/04/14 01:40:01;;;;;;;1.13;1.08;;;5.60;99.90;;;;;;5074828;28;20208;-81
2023/04/14 01:42:33;;;;;;;0.63;0.63;;;5.60;99.90;;;;;;5074547;28;20225;-82
2023/04/14 01:45:08;;;;;;;0.88;0.82;;;5.50;99.90;;;;;;5074511;28;20213;-82
2023/04/14 01:47:40;;;;;;;0.73;0.73;;;5.50;99.90;;;;;;5073930;28;20219;-82
2023/04/14 01:50:11;;;;;;;0.70;0.70;;;5.50;99.90;;;;;;5074554;28;20251;-80
2023/04/14 01:52:42;;;;;;;1.73;1.20;;;5.40;99.90;;;;;;5074338;28;20320;-81
2023/04/14 01:55:12;;;;;;;0.70;0.70;;;5.40;99.90;;;;;;5074075;28;20207;-81
2023/04/14 01:57:42;;;;;;;1.20;0.98;;;5.30;99.90;;;;;;5073625;28;20212;-80
2023/04/14 02:00:13;;;;;;;2.08;0.95;;;5.20;99.90;;;;;;5074527;28;20205;-80
2023/04/14 02:02:45;;;;;;;0.70;0.70;;;5.10;99.90;;;;;;5073815;28;20259;-80
2023/04/14 02:05:17;;;;;;;0.80;0.80;;;5.00;99.90;;;;;;5074464;28;20228;-82
2023/04/14 02:07:47;;;;;;;0.93;0.93;;;4.90;99.90;;;;;;5073503;28;20296;-83
2023/04/14 02:10:17;;;;;;;0.60;0.60;;;4.90;99.90;;;;;;5074334;28;20295;-84
2023/04/14 02:12:47;;;;;;;0.85;0.82;;;4.80;99.90;;;;;;5074272;28;20260;-83
2023/04/14 02:15:17;;;;;;;0.82;0.82;;;4.80;99.90;;;;;;5073663;28;20213;-83
2023/04/14 02:17:50;;;;;;;0.57;0.57;;;4.70;99.90;;;;;;5073150;28;20291;-83
2023/04/14 02:20:22;;;;;;;2.03;1.40;;;4.70;99.90;;;;;;5074171;28;20267;-83
2023/04/14 02:22:55;;;;;;;2.35;1.30;;;4.70;99.90;;;;;;5073540;28;20232;-79
2023/04/14 02:25:29;;;;;;;1.17;0.95;;;4.70;99.90;;;;;;5074892;28;20212;-83
2023/04/14 02:28:03;;;;;;;0.82;0.82;;;4.60;99.90;;;;;;5074848;28;20205;-82
2023/04/14 02:30:38;;;;;;;1.10;1.05;;;4.60;99.90;;;;;;5073932;28;20205;-80
2023/04/14 02:33:10;;;;;;;0.80;0.80;;;4.60;99.90;;;;;;5072585;28;20232;-80
2023/04/14 02:35:45;;;;;;;0.80;0.80;;;4.50;99.90;;;;;;5074052;28;20197;-80
2023/04/14 02:38:19;;;;;;;1.17;1.10;;;4.50;99.90;;;;;;5073530;28;20295;-80
2023/04/14 02:40:49;;;;;;;0.95;0.95;;;4.50;99.90;;;;;;5073063;28;20236;-80
2023/04/14 02:43:20;;;;;;;1.10;1.10;;;4.40;99.90;;;;;;5073360;28;20217;-80
2023/04/14 02:45:51;;;;;;;1.27;1.25;;;4.40;99.90;;;;;;5072881;28;20201;-80
2023/04/14 02:48:24;;;;;;;1.25;1.20;;;4.40;99.90;;;;;;5073106;28;20287;-80
2023/04/14 02:50:56;;;;;;;0.73;0.73;;;4.30;99.90;;;;;;5073529;28;20209;-80
2023/04/14 02:53:26;;;;;;;1.05;0.82;;;4.40;99.90;;;;;;5072980;28;20208;-80
2023/04/14 02:55:55;;;;;;;1.92;1.45;;;4.30;99.90;;;;;;5072919;28;20212;-80
2023/04/14 02:58:23;;;;;;;3.35;1.35;;;4.30;99.90;;;;;;5072542;28;20216;-80
2023/04/14 03:00:52;;;;;;;1.27;1.20;;;4.30;99.90;;;;;;5073069;28;20217;-80
2023/04/14 03:03:25;;;;;;;0.90;0.90;;;4.20;99.90;;;;;;5072994;28;20213;-81
2023/04/14 03:05:55;;;;;;;0.90;0.90;;;4.20;99.90;;;;;;5072815;28;20227;-83
2023/04/14 03:08:25;;;;;;;1.30;1.20;;;4.10;99.90;;;;;;5072430;28;20196;-83
2023/04/14 03:10:57;;;;;;;1.30;1.25;;;4.10;99.90;;;;;;5073039;28;20211;-82
2023/04/14 03:13:28;;;;;;;1.38;1.27;;;4.10;99.90;;;;;;5073038;28;20229;-83
2023/04/14 03:15:58;;;;;;;1.52;1.42;;;4.00;99.90;;;;;;5073278;28;20287;-79
2023/04/14 03:18:30;;;;;;;1.30;1.30;;;4.00;99.90;;;;;;5072422;28;20239;-80
2023/04/14 03:21:01;;;;;;;1.38;1.27;;;4.00;99.90;;;;;;5072813;28;20228;-80
2023/04/14 03:23:31;;;;;;;1.20;1.20;;;3.90;99.90;;;;;;5072725;28;20292;-80
2023/04/14 03:26:02;;;;;;;1.45;1.35;;;3.90;99.90;;;;;;5072493;28;20205;-83
2023/04/14 03:28:37;;;;;;;1.60;1.50;;;3.90;99.90;;;;;;5071958;28;20205;-79
2023/04/14 03:31:07;;;;;;;0.85;0.85;;;3.80;99.90;;;;;;5073165;28;20196;-84
2023/04/14 03:33:39;;;;;;;1.40;1.30;;;3.80;99.90;;;;;;5071664;28;20204;-83
2023/04/14 03:36:08;;;;;;;1.38;1.27;;;3.70;99.90;;;;;;5072485;28;20209;-84
2023/04/14 03:38:37;;;;;;;1.92;1.50;;;3.70;99.90;;;;;;5071645;28;20209;-84
2023/04/14 03:41:08;;;;;;;1.40;1.30;;;3.60;99.90;;;;;;5072621;28;20204;-84
2023/04/14 03:43:37;;;;;;;1.30;1.23;;;3.60;99.90;;;;;;5072437;28;20209;-84
2023/04/14 03:46:06;;;;;;;1.65;1.35;;;3.60;99.90;;;;;;5072638;28;20213;-84
2023/04/14 03:48:41;;;;;;;1.15;1.02;;;3.50;99.90;;;;;;5071728;28;20208;-84
2023/04/14 03:51:12;;;;;;;1.00;0.98;;;3.50;99.90;;;;;;5075637;28;20205;-83
2023/04/14 03:53:43;;;;;;;0.75;0.75;;;3.50;99.90;;;;;;5076456;28;20300;-83
2023/04/14 03:56:17;;;;;;;1.23;0.80;;;3.50;99.90;;;;;;5076736;28;20216;-83
2023/04/14 03:58:48;;;;;;;0.50;0.50;;;3.40;99.90;;;;;;5076061;28;20204;-83
2023/04/14 04:01:17;;;;;;;0.60;0.60;;;3.40;99.90;;;;;;5075865;28;20243;-82
2023/04/14 04:03:51;;;;;;;0.40;0.40;;;3.30;99.90;;;;;;5076295;28;20226;-82
2023/04/14 04:06:20;;;;;;;1.10;1.00;;;3.40;99.90;;;;;;5076342;28;20200;-82
2023/04/14 04:08:51;;;;;;;1.15;0.82;;;3.30;99.90;;;;;;5075914;28;20215;-82
2023/04/14 04:11:24;;;;;;;0.73;0.73;;;3.30;99.90;;;;;;5076339;28;20235;-84
2023/04/14 04:13:54;;;;;;;0.80;0.80;;;3.30;99.90;;;;;;5076612;28;20219;-82
2023/04/14 04:16:26;;;;;;;1.50;1.23;;;3.20;99.90;;;;;;5076079;28;20205;-81
2023/04/14 04:18:57;;;;;;;1.15;1.15;;;3.20;99.90;;;;;;5075466;28;20201;-81
2023/04/14 04:21:30;;;;;;;0.90;0.90;;;3.20;99.90;;;;;;5075920;28;20237;-81
2023/04/14 04:24:01;;;;;;;0.73;0.73;;;3.20;99.90;;;;;;5076122;28;20209;-84
2023/04/14 04:26:30;;;;;;;0.20;0.20;;;3.20;99.90;;;;;;5075657;28;20279;-84
2023/04/14 04:28:59;;;;;;;0.77;0.75;;;3.20;99.90;;;;;;5075154;28;20209;-83
2023/04/14 04:31:31;;;;;;;0.47;0.47;;;3.20;99.90;;;;;;5075651;28;20239;-83
2023/04/14 04:34:03;;;;;;;0.63;0.63;;;3.20;99.90;;;;;;5074946;28;20296;-80
2023/04/14 04:36:35;;;;;;;1.30;1.00;;;3.20;99.90;;;;;;5075879;28;20223;-83
2023/04/14 04:39:06;;;;;;;1.02;0.93;;;3.20;99.90;;;;;;5075591;28;20240;-83
2023/04/14 04:41:34;;;;;;;0.70;0.70;;;3.20;99.90;;;;;;5075424;28;20220;-80
2023/04/14 04:44:03;;;;;;;0.52;0.50;;;3.20;99.90;;;;;;5075434;28;20255;-80
2023/04/14 04:46:46;;;;;;;0.28;0.25;;;3.20;99.90;;;;;;5075202;28;20291;-80
2023/04/14 04:49:16;;;;;;;0.73;0.73;;;3.20;99.90;;;;;;5075312;28;20200;-81
2023/04/14 04:51:45;;;;;;;0.30;0.30;;;3.10;99.90;;;;;;5075923;28;20244;-80
2023/04/14 04:54:14;;;;;;;0.77;0.70;;;3.10;99.90;;;;;;5075721;28;20264;-80
2023/04/14 04:56:42;;;;;;;0.70;0.70;;;3.10;99.90;;;;;;5074887;28;20216;-80
2023/04/14 04:59:11;;;;;;;1.00;1.00;;;3.10;99.90;;;;;;5075218;28;20201;-81
2023/04/14 05:01:39;;;;;;;0.90;0.90;;;3.10;99.90;;;;;;5073846;28;20236;-80
2023/04/14 05:04:09;;;;;;;0.93;0.93;;;3.10;99.90;;;;;;5075377;28;20208;-81
2023/04/14 05:06:39;;;;;;;0.90;0.90;;;3.10;99.90;;;;;;5075421;28;20278;-81
2023/04/14 05:09:08;;;;;;;1.00;1.00;;;3.10;99.90;;;;;;5075080;28;20212;-84
2023/04/14 05:11:36;;;;;;;4.22;1.23;;;3.10;99.90;;;;;;5074897;28;20225;-83
2023/04/14 05:14:05;;;;;;;1.17;1.08;;;3.00;99.90;;;;;;5075174;28;20202;-84
2023/04/14 05:16:33;;;;;;;1.42;1.33;;;3.10;99.90;;;;;;5075243;28;20209;-83
2023/04/14 05:19:01;;;;;;;1.13;1.02;;;3.10;99.90;;;;;;5074725;28;20201;-83
2023/04/14 05:21:30;;;;;;;1.27;0.98;;;3.10;99.90;;;;;;5074983;28;20235;-83
2023/04/14 05:24:00;;;;;;;1.10;1.00;;;3.10;99.90;;;;;;5074269;28;20312;-83
2023/04/14 05:26:32;;;;;;;1.23;1.13;;;3.10;99.90;;;;;;5074770;28;20239;-83
2023/04/14 05:29:20;;;;;;;1.95;1.38;;;3.10;99.90;;;;;;5074535;28;20204;-83
2023/04/14 05:31:48;;;;;;;1.52;1.42;;;3.10;99.90;;;;;;5074932;28;20225;-83
2023/04/14 05:34:17;;;;;;;0.85;0.85;;;3.10;99.90;;;;;;5073894;28;20209;-83
2023/04/14 05:36:45;;;;;;;0.85;0.85;;;3.20;99.90;;;;;;5074112;28;20205;-83
2023/04/14 05:39:15;;;;;;;0.80;0.80;;;3.10;99.90;;;;;;5074801;28;20205;-83
2023/04/14 05:41:43;;;;;;;0.85;0.85;;;3.10;99.90;;;;;;5074501;28;20308;-83
2023/04/14 05:44:12;;;;;;;0.98;0.77;;;3.10;99.90;;;;;;5074444;28;20228;-84
2023/04/14 05:46:41;;;;;;;0.68;0.68;;;3.10;99.90;;;;;;5074227;28;20213;-83
2023/04/14 05:49:10;;;;;;;1.52;1.42;;;3.10;99.90;;;;;;5073967;28;20205;-83
2023/04/14 05:51:39;;;;;;;1.55;1.45;;;3.10;99.90;;;;;;5074656;28;20225;-83
2023/04/14 05:54:08;;;;;;;1.20;1.13;;;3.20;99.90;;;;;;5074303;28;20232;-82
2023/04/14 05:56:38;;;;;;;2.30;1.52;;;3.10;99.90;;;;;;5074254;28;20212;-82
2023/04/14 05:59:09;;;;;;;1.20;1.20;;;3.10;99.90;;;;;;5074104;28;20208;-81
2023/04/14 06:01:37;;;;;;;1.20;1.10;;;3.20;99.90;;;;;;5073623;28;20239;-83
2023/04/14 06:04:09;;;;;;;0.65;0.65;;;3.20;99.90;;;;;;5073937;28;20243;-83
2023/04/14 06:06:42;;;;;;;0.50;0.50;;;3.10;99.90;;;;;;5074374;28;20223;-81
2023/04/14 06:09:11;;;;;;;0.80;0.80;;;3.20;99.90;;;;;;5073870;28;20197;-83
2023/04/14 06:11:40;;;;;;;1.10;1.10;;;3.20;99.90;;;;;;5073858;28;20316;-83
2023/04/14 06:14:09;;;;;;;0.70;0.70;;;3.20;99.90;;;;;;5073241;28;20196;-84
2023/04/14 06:16:38;;;;;;;1.20;1.00;;;3.20;99.90;;;;;;5073713;28;20209;-83
2023/04/14 06:19:07;;;;;;;1.38;1.17;;;3.20;99.90;;;;;;5073493;28;20295;-83
2023/04/14 06:21:35;;;;;;;0.85;0.85;;;3.20;99.90;;;;;;5073452;28;20231;-82
2023/04/14 06:24:03;;;;;;;2.03;1.42;;;3.20;99.90;;;;;;5073451;28;20231;-82
2023/04/14 06:26:32;;;;;;;0.55;0.55;;;3.20;99.90;;;;;;5073907;28;20205;-82
2023/04/14 06:29:02;;;;;;;1.00;1.00;;;3.20;99.90;;;;;;5073179;28;20216;-82
2023/04/14 06:31:30;;;;;;;1.13;1.10;;;3.30;99.90;;;;;;5073580;28;20264;-83
2023/04/14 06:33:59;;;;;;;1.25;1.17;;;3.30;99.90;;;;;;5072533;28;20197;-85
2023/04/14 06:36:27;;;;;;;4.22;1.40;;;3.30;99.90;;;;;;5073379;28;20291;-84
2023/04/14 06:38:57;;;;;;;0.73;0.73;;;3.30;99.90;;;;;;5073495;28;20237;-85
2023/04/14 06:41:26;;;;;;;1.10;1.10;;;3.30;99.90;;;;;;5073609;28;20286;-85
2023/04/14 06:43:54;;;;;;;1.13;1.13;;;3.30;99.90;;;;;;5073181;28;20320;-85
2023/04/14 06:46:27;;;;;;;1.15;1.08;;;3.30;99.90;;;;;;5072907;28;20201;-85
2023/04/14 06:48:56;;;;;;;1.42;1.33;;;3.40;99.90;;;;;;5072694;28;20205;-85
2023/04/14 06:51:26;;;;;;;0.80;0.80;;;3.40;99.90;;;;;;5073059;28;20225;-85
2023/04/14 06:53:54;;;;;;;1.00;1.00;;;3.40;99.90;;;;;;5073057;28;20205;-85
2023/04/14 06:56:22;;;;;;;3.08;2.17;;;3.40;99.90;;;;;;5073228;28;20208;-85
2023/04/14 06:58:51;;;;;;;1.55;1.45;;;3.40;99.90;;;;;;5072280;28;20201;-85
2023/04/14 07:01:19;;;;;;;1.75;1.65;;;3.50;99.90;;;;;;5072675;28;20236;-82
2023/04/14 07:03:49;;;;;;;1.48;1.35;;;3.50;99.90;;;;;;5072730;28;20223;-85
2023/04/14 07:06:17;;;;;;;1.88;1.33;;;3.50;99.90;;;;;;5073655;28;20240;-82
2023/04/14 07:08:47;;;;;;;1.30;1.25;;;3.50;99.90;;;;;;5072545;28;20205;-81
2023/04/14 07:11:15;;;;;;;1.30;1.20;;;3.50;99.90;;;;;;5072896;28;20236;-82
2023/04/14 07:13:43;;;;;;;1.00;1.00;;;3.60;99.90;;;;;;5072745;28;20291;-82
2023/04/14 07:16:12;;;;;;;1.08;1.08;;;3.60;99.90;;;;;;5072477;28;20235;-85
2023/04/14 07:18:40;;;;;;;1.00;1.00;;;3.60;99.90;;;;;;5072449;28;20201;-82
2023/04/14 07:21:10;;;;;;;1.50;1.40;;;3.60;99.90;;;;;;5072766;28;20207;-85
2023/04/14 07:23:41;;;;;;;2.22;1.92;;;3.60;99.90;;;;;;5072473;28;20285;-82
2023/04/14 07:26:10;;;;;;;1.50;1.40;;;3.60;99.90;;;;;;5072283;28;20284;-82
2023/04/14 07:28:38;;;;;;;1.40;1.30;;;3.60;99.90;;;;;;5072115;28;20205;-82
2023/04/14 07:31:08;;;;;;;0.95;0.95;;;3.60;99.90;;;;;;5072765;28;20217;-85
2023/04/14 07:33:36;;;;;;;1.60;1.48;;;3.70;99.90;;;;;;5072119;28;20197;-85
2023/04/14 07:36:10;;;;;;;1.42;1.33;;;3.70;99.90;;;;;;5072632;28;20197;-85
2023/04/14 07:38:44;;;;;;;1.33;1.30;;;3.70;99.90;;;;;;5072097;28;20224;-85
2023/04/14 07:41:12;;;;;;;1.25;1.25;;;3.70;99.90;;;;;;5072146;28;20201;-85
2023/04/14 07:43:41;;;;;;;1.33;1.25;;;3.70;99.90;;;;;;5072698;28;20231;-85
2023/04/14 07:46:12;;;;;;;1.80;1.58;;;3.80;99.90;;;;;;5072436;28;20205;-85
2023/04/14 07:48:41;;;;;;;2.10;1.60;;;3.80;99.90;;;;;;5071946;28;20205;-83
2023/04/14 07:51:11;;;;;;;2.20;2.00;;;3.80;99.90;;;;;;5072360;28;20205;-83
2023/04/14 07:53:42;;;;;;;3.17;1.75;;;3.80;99.90;;;;;;5072267;28;20223;-83
2023/04/14 07:56:11;;;;;;;2.45;1.98;;;3.80;99.90;;;;;;5074158;28;20205;-85
2023/04/14 07:58:40;;;;;;;8.88;1.90;;;3.90;99.90;;;;;;5072033;28;20204;-83
2023/04/14 08:01:08;;;;;;;9.52;1.70;;;3.80;99.90;;;;;;5072171;28;20282;-85
2023/04/14 08:03:37;;;;;;;1.98;1.85;;;3.90;99.90;;;;;;5072336;28;20229;-85
2023/04/14 08:06:06;;;;;;;1.67;1.58;;;3.90;99.90;;;;;;5071988;28;20219;-85
2023/04/14 08:08:37;;;;;;;2.17;1.70;;;3.90;99.90;;;;;;5071901;28;20212;-85
2023/04/14 08:11:05;;;;;;;1.67;1.58;;;3.90;99.90;;;;;;5072356;28;20205;-86
2023/04/14 08:13:35;;;;;;;2.42;2.17;;;3.90;99.90;;;;;;5072518;28;20246;-85
2023/04/14 08:16:04;;;;;;;1.98;1.85;;;3.90;99.90;;;;;;5072138;28;20201;-86
2023/04/14 08:18:33;;;;;;;1.40;1.30;;;3.90;99.90;;;;;;5071926;28;20227;-86
2023/04/14 08:21:02;;;;;;;1.25;1.00;;;4.00;99.90;;;;;;5072145;28;20225;-86
2023/04/14 08:23:30;;;;;;;1.52;1.42;;;3.90;99.90;;;;;;5072111;28;20209;-83
2023/04/14 08:26:03;;;;;;;1.42;1.33;;;3.90;99.90;;;;;;5072427;28;20200;-85
2023/04/14 08:28:31;;;;;;;1.45;1.35;;;3.90;99.90;;;;;;5071555;28;20215;-85
2023/04/14 08:31:01;;;;;;;1.55;1.45;;;3.90;99.90;;;;;;5069331;28;20281;-84
2023/04/14 08:33:32;;;;;;;1.30;1.25;;;3.90;99.90;;;;;;5061633;28;20308;-84
2023/04/14 08:36:02;;;;;;;1.55;1.45;;;3.90;99.90;;;;;;5063290;28;20208;-84
2023/04/14 08:38:32;;;;;;;1.55;1.45;;;3.90;99.90;;;;;;5063322;28;20208;-84
2023/04/14 08:41:08;;;;;;;0.95;0.95;;;3.90;99.90;;;;;;5062649;28;20207;-85
2023/04/14 08:43:37;;;;;;;1.50;1.40;;;3.90;99.90;;;;;;5074098;28;20205;-89
2023/04/14 08:46:09;;;;;;;1.27;1.27;;;3.80;99.90;;;;;;5055451;28;20233;-85
2023/04/14 08:48:39;;;;;;;1.13;1.13;;;3.80;99.90;;;;;;5061319;28;20205;-85
2023/04/14 08:51:13;;;;;;;1.58;1.48;;;3.80;99.90;;;;;;5075288;28;20423;-85
2023/04/14 08:53:44;;;;;;;1.20;1.20;;;3.80;99.90;;;;;;5074996;28;20197;-85
2023/04/14 08:56:20;;;;;;;1.05;1.05;;;3.80;99.90;;;;;;5075112;28;20239;-85
2023/04/14 08:58:49;;;;;;;1.50;1.40;;;3.80;99.90;;;;;;5074535;28;20293;-81
2023/04/14 09:01:18;;;;;;;1.08;1.08;;;3.80;99.90;;;;;;5074642;28;20225;-81
2023/04/14 09:03:49;;;;;;;1.30;1.20;;;3.80;99.90;;;;;;5073886;28;20200;-85
2023/04/14 09:06:19;;;;;;;1.38;1.27;;;3.80;99.90;;;;;;5075150;28;20209;-85
2023/04/14 09:08:47;;;;;;;1.10;1.10;;;3.80;99.90;;;;;;5074252;28;20201;-85
2023/04/14 09:11:19;;;;;;;1.23;1.13;;;3.70;99.90;;;;;;5074320;28;20228;-85
2023/04/14 09:13:49;;;;;;;1.00;1.00;;;3.70;99.90;;;;;;5073357;28;20201;-85
2023/04/14 09:16:19;;;;;;;1.15;1.10;;;3.70;99.90;;;;;;5074676;28;20201;-85
2023/04/14 09:18:48;;;;;;;0.90;0.75;;;3.70;99.90;;;;;;5074299;28;20205;-85
2023/04/14 09:21:18;;;;;;;1.30;1.08;;;3.70;99.90;;;;;;5074814;28;20308;-85
2023/04/14 09:24:07;;;;;;;0.77;0.77;;;3.60;99.90;;;;;;5074883;28;20266;-85
2023/04/14 09:26:45;;;;;;;0.60;0.60;;;3.60;99.90;;;;;;5073789;28;20266;-85
2023/04/14 09:29:14;;;;;;;0.95;0.88;;;3.50;99.90;;;;;;5074726;28;20221;-85
2023/04/14 09:31:43;;;;;;;0.95;0.95;;;3.40;99.90;;;;;;5074095;28;20232;-86
2023/04/14 09:34:17;;;;;;;0.70;0.70;;;3.40;99.90;;;;;;5074509;28;20291;-85
2023/04/14 09:37:01;;;;;;;0.52;0.52;;;3.40;99.90;;;;;;5071298;28;20212;-85
2023/04/14 09:39:30;;;;;;;0.57;0.57;;;3.20;99.90;;;;;;5055656;28;20213;-86
2023/04/14 09:42:00;;;;;;;0.50;0.50;;;3.20;99.90;;;;;;5070862;28;20312;-83
2023/04/14 09:44:29;;;;;;;1.08;1.08;;;3.20;99.90;;;;;;5071790;28;20228;-85
2023/04/14 09:47:00;;;;;;;0.75;0.75;;;3.20;99.90;;;;;;5071221;28;20278;-87
2023/04/14 09:49:30;;;;;;;0.40;0.40;;;3.10;99.90;;;;;;5072222;28;20233;-85
2023/04/14 09:52:06;;;;;;;0.57;0.57;;;3.20;99.90;;;;;;5071540;28;20280;-85
2023/04/14 09:54:37;;;;;;;1.08;0.60;;;3.10;99.90;;;;;;5072023;28;20293;-85
2023/04/14 09:57:07;;;;;;;0.30;0.30;;;3.10;99.90;;;;;;5071477;28;20201;-85
2023/04/14 09:59:37;;;;;;;0.30;0.30;;;3.20;99.90;;;;;;5072333;28;20212;-84
2023/04/14 10:02:08;;;;;;;1.95;0.40;;;3.20;99.90;;;;;;5071071;28;20240;-85
2023/04/14 10:04:39;;;;;;;0.50;0.50;;;3.10;99.90;;;;;;5071581;28;20209;-85
2023/04/14 10:07:08;;;;;;;1.00;0.95;;;3.20;99.90;;;;;;5061498;28;20210;-85
2023/04/14 10:09:37;;;;;;;0.70;0.70;;;3.10;99.90;;;;;;5067092;28;20209;-85
2023/04/14 10:12:12;;;;;;;0.30;0.30;;;3.10;99.90;;;;;;5059191;28;20229;-83
2023/04/14 10:14:42;;;;;;;0.75;0.75;;;3.10;99.90;;;;;;5055717;28;20232;-85
2023/04/14 10:17:12;;;;;;;2.58;0.82;;;3.10;99.90;;;;;;5070092;28;20205;-85
2023/04/14 10:19:40;;;;;;;1.40;0.95;;;3.20;99.90;;;;;;5071288;28;20205;-85
2023/04/14 10:22:11;;;;;;;0.50;0.50;;;3.20;99.90;;;;;;5059644;28;20328;-85
2023/04/14 10:24:42;;;;;;;1.52;0.65;;;3.20;99.90;;;;;;5050976;28;20300;-85
2023/04/14 10:27:16;;;;;;;0.52;0.52;;;3.10;99.90;;;;;;5051329;28;20210;-85
2023/04/14 10:29:46;;;;;;;0.80;0.80;;;3.10;99.90;;;;;;5051179;28;20315;-85
2023/04/14 10:32:16;;;;;;;0.47;0.47;;;3.20;99.90;;;;;;5050829;28;20240;-85
2023/04/14 10:34:58;;;;;;;0.35;0.35;;;3.10;99.90;;;;;;5065437;28;20233;-82
2023/04/14 10:37:26;;;;;;;0.28;0.28;;;3.10;99.90;;;;;;5070142;28;20205;-85
2023/04/14 10:39:55;;;;;;;0.40;0.40;;;3.10;99.90;;;;;;5062107;28;20261;-84
2023/04/14 10:42:27;;;;;;;0.80;0.80;;;3.20;99.90;;;;;;5050808;28;20232;-85
2023/04/14 10:45:04;;;;;;;0.55;0.55;;;3.10;99.90;;;;;;5050723;28;20220;-85
2023/04/14 10:47:41;;;;;;;0.65;0.63;;;3.10;99.90;;;;;;5050153;28;20209;-85
2023/04/14 10:50:14;;;;;;;0.60;0.60;;;3.20;99.90;;;;;;5051143;28;20232;-85
2023/04/14 10:52:54;;;;;;;1.02;0.98;;;3.20;99.90;;;;;;5053055;28;20228;-84
2023/04/14 10:55:24;;;;;;;0.63;0.63;;;3.20;99.90;;;;;;5050828;28;20216;-84
2023/04/14 10:58:04;;;;;;;0.85;0.85;;;3.20;99.90;;;;;;5049740;28;20213;-85
2023/04/14 11:00:38;;;;;;;0.40;0.40;;;3.20;99.90;;;;;;5050871;28;20218;-85
2023/04/14 11:03:11;;;;;;;0.57;0.57;;;3.10;99.90;;;;;;5054149;28;20292;-85
2023/04/14 11:05:43;;;;;;;0.43;0.43;;;3.20;99.90;;;;;;5057438;28;20237;-84
2023/04/14 11:08:18;;;;;;;0.68;0.68;;;3.20;99.90;;;;;;5050105;28;20275;-82
2023/04/14 11:10:51;;;;;;;0.60;0.60;;;3.20;99.90;;;;;;5060128;28;20213;-84
2023/04/14 11:13:21;;;;;;;0.95;0.82;;;3.10;99.90;;;;;;5050301;28;20222;-83
2023/04/14 11:15:53;;;;;;;0.63;0.63;;;3.20;99.90;;;;;;5050122;28;20218;-84
2023/04/14 11:18:33;;;;;;;0.52;0.52;;;3.20;99.90;;;;;;5049874;28;20210;-84
2023/04/14 11:21:04;;;;;;;0.45;0.45;;;3.20;99.90;;;;;;5055606;28;20272;-82
2023/04/14 11:23:34;;;;;;;0.40;0.40;;;3.10;99.90;;;;;;5072683;28;20268;-84
2023/04/14 11:26:06;;;;;;;0.30;0.30;;;3.20;99.90;;;;;;5072296;28;20232;-84
2023/04/14 11:28:38;;;;;;;2.67;0.77;;;3.20;99.90;;;;;;5071948;28;20243;-84
2023/04/14 11:31:08;;;;;;;0.40;0.40;;;3.20;99.90;;;;;;5071818;28;20197;-82
2023/04/14 11:33:40;;;;;;;0.38;0.38;;;3.20;99.90;;;;;;5072428;28;20201;-80
2023/04/14 11:36:11;;;;;;;0.55;0.55;;;3.20;99.90;;;;;;5071913;28;20213;-80
2023/04/14 11:38:40;;;;;;;0.60;0.60;;;3.20;99.90;;;;;;5071933;28;20258;-80
2023/04/14 11:41:09;;;;;;;0.28;0.28;;;3.20;99.90;;;;;;5068847;28;20236;-80
2023/04/14 11:43:45;;;;;;;0.77;0.75;;;3.20;99.90;;;;;;5072101;28;20205;-80
2023/04/14 11:46:15;;;;;;;0.73;0.73;;;3.20;99.90;;;;;;5072083;28;20213;-80
2023/04/14 11:48:44;;;;;;;0.82;0.82;;;3.20;99.90;;;;;;5071695;28;20204;-80
2023/04/14 11:51:13;;;;;;;0.52;0.52;;;3.20;99.90;;;;;;5072671;28;20213;-80
2023/04/14 11:53:44;;;;;;;2.17;1.20;;;3.20;99.90;;;;;;5072184;28;20201;-85
2023/04/14 11:56:16;;;;;;;0.47;0.47;;;3.20;99.90;;;;;;5071722;28;20199;-80
2023/04/14 11:58:46;;;;;;;0.55;0.55;;;3.20;99.90;;;;;;5071716;28;20240;-80
2023/04/14 12:01:15;;;;;;;0.70;0.70;;;3.20;99.90;;;;;;5072431;28;20211;-80
2023/04/14 12:03:43;;;;;;;0.98;0.98;;;3.20;99.90;;;;;;5072271;28;20201;-80
2023/04/14 12:06:12;;;;;;;0.50;0.50;;;3.30;99.90;;;;;;5071876;28;20225;-85
2023/04/14 12:08:40;;;;;;;1.25;0.50;;;3.30;99.90;;;;;;5071617;28;20216;-85
2023/04/14 12:11:13;;;;;;;0.60;0.60;;;3.30;99.90;;;;;;5070484;28;20209;-85
2023/04/14 12:13:42;;;;;;;0.47;0.47;;;3.30;99.90;;;;;;5076182;28;20205;-85
2023/04/14 12:16:13;;;;;;;1.00;0.80;;;3.40;99.90;;;;;;5075692;28;20189;-85
2023/04/14 12:18:44;;;;;;;0.35;0.35;;;3.30;99.90;;;;;;5075316;28;20228;-85
2023/04/14 12:21:18;;;;;;;0.50;0.50;;;3.40;99.90;;;;;;5075732;28;20212;-85
2023/04/14 12:23:50;;;;;;;3.85;0.88;;;3.40;99.90;;;;;;5072053;28;20215;-86
2023/04/14 12:26:20;;;;;;;1.02;0.65;;;3.40;99.90;;;;;;5063121;28;20304;-87
2023/04/14 12:28:55;;;;;;;0.40;0.40;;;3.40;99.90;;;;;;5055310;28;20221;-81
2023/04/14 12:31:29;;;;;;;0.65;0.65;;;3.40;99.90;;;;;;5055715;28;20235;-84
2023/04/14 12:34:02;;;;;;;1.00;1.00;;;3.40;99.90;;;;;;5057439;28;20255;-84
2023/04/14 12:36:31;;;;;;;0.65;0.65;;;3.40;99.90;;;;;;5075399;28;20201;-85
2023/04/14 12:39:17;;;;;;;0.55;0.55;;;3.40;99.90;;;;;;5071647;28;20193;-85
2023/04/14 12:41:45;;;;;;;0.80;0.80;;;3.40;99.90;;;;;;5058052;28;20230;-84
2023/04/14 12:44:16;;;;;;;0.57;0.57;;;3.40;99.90;;;;;;5055606;28;20236;-85
2023/04/14 12:46:51;;;;;;;0.77;0.77;;;3.40;99.90;;;;;;5055564;28;20240;-85
2023/04/14 12:49:30;;;;;;;0.77;0.77;;;3.40;99.90;;;;;;5073084;28;20205;-82
2023/04/14 12:51:59;;;;;;;0.95;0.85;;;3.40;99.90;;;;;;5075481;28;20224;-84
2023/04/14 12:54:27;;;;;;;0.63;0.63;;;3.40;99.90;;;;;;5075210;28;20300;-83
2023/04/14 12:56:56;;;;;;;0.60;0.60;;;3.40;99.90;;;;;;5074182;28;20194;-84
2023/04/14 12:59:24;;;;;;;0.88;0.88;;;3.40;99.90;;;;;;5075306;28;20213;-84
2023/04/14 13:01:53;;;;;;;0.50;0.50;;;3.40;99.90;;;;;;5073979;28;20229;-83
2023/04/14 13:04:22;;;;;;;1.08;1.08;;;3.40;99.90;;;;;;5073128;28;20201;-83
2023/04/14 13:06:51;;;;;;;0.88;0.88;;;3.50;99.90;;;;;;5070417;28;20225;-83
2023/04/14 13:09:20;;;;;;;0.80;0.80;;;3.50;99.90;;;;;;5058343;28;20197;-86
2023/04/14 13:11:48;;;;;;;0.65;0.65;;;3.60;99.90;;;;;;5056598;28;20249;-86
2023/04/14 13:14:19;;;;;;;0.57;0.57;;;3.60;99.90;;;;;;5055047;28;20216;-82
2023/04/14 13:16:48;;;;;;;1.52;1.42;;;3.60;99.90;;;;;;5053992;28;20276;-82